sensor_id;sensor_type;location;lat;lon;timestamp;pressure;altitude;pressure_sealevel;temperature;humidity
55687;BME280;41911;52.362;4.978;2023-03-14T00:01:32;98772.24;;;8.48;50.83
55687;BME280;41911;52.362;4.978;2023-03-14T00:02:03;98770.29;;;8.85;50.74
55687;BME280;41911;52.362;4.978;2023-03-14T00:02:34;98773.53;;;9.24;50.47
55687;BME280;41911;52.362;4.978;2023-03-14T00:03:05;98774.53;;;9.14;50.15
55687;BME280;41911;52.362;4.978;2023-03-14T00:03:36;98778.80;;;8.90;50.50
55687;BME280;41911;52.362;4.978;2023-03-14T00:04:07;98784.41;;;8.95;50.86
55687;BME280;41911;52.362;4.978;2023-03-14T00:04:38;98780.89;;;8.52;51.42
55687;BME280;41911;52.362;4.978;2023-03-14T00:05:09;98766.20;;;8.63;51.41
55687;BME280;41911;52.362;4.978;2023-03-14T00:05:40;98772.07;;;8.20;51.68
55687;BME280;41911;52.362;4.978;2023-03-14T00:06:12;98771.11;;;8.24;52.19
55687;BME280;41911;52.362;4.978;2023-03-14T00:06:44;98786.01;;;8.07;52.52
55687;BME280;41911;52.362;4.978;2023-03-14T00:07:15;98778.72;;;8.15;52.37
55687;BME280;41911;52.362;4.978;2023-03-14T00:07:46;98782.50;;;8.25;51.90
55687;BME280;41911;52.362;4.978;2023-03-14T00:08:17;98784.71;;;8.76;51.45
55687;BME280;41911;52.362;4.978;2023-03-14T00:08:48;98779.38;;;8.91;51.19
55687;BME280;41911;52.362;4.978;2023-03-14T00:09:19;98784.71;;;8.72;51.35
55687;BME280;41911;52.362;4.978;2023-03-14T00:09:50;98785.58;;;8.90;51.15
55687;BME280;41911;52.362;4.978;2023-03-14T00:10:21;98786.34;;;9.02;50.60
55687;BME280;41911;52.362;4.978;2023-03-14T00:10:52;98778.98;;;8.61;51.13
55687;BME280;41911;52.362;4.978;2023-03-14T00:11:23;98780.26;;;8.66;51.14
55687;BME280;41911;52.362;4.978;2023-03-14T00:11:54;98792.73;;;8.32;51.48
55687;BME280;41911;52.362;4.978;2023-03-14T00:12:25;98770.57;;;8.70;51.52
55687;BME280;41911;52.362;4.978;2023-03-14T00:12:56;98782.13;;;8.31;52.03
55687;BME280;41911;52.362;4.978;2023-03-14T00:13:26;98777.40;;;8.62;51.76
55687;BME280;41911;52.362;4.978;2023-03-14T00:13:57;98778.00;;;8.59;51.76
55687;BME280;41911;52.362;4.978;2023-03-14T00:14:29;98775.67;;;8.60;51.65
55687;BME280;41911;52.362;4.978;2023-03-14T00:15:01;98780.07;;;8.23;52.14
55687;BME280;41911;52.362;4.978;2023-03-14T00:15:33;98792.77;;;7.71;52.45
55687;BME280;41911;52.362;4.978;2023-03-14T00:16:07;98783.22;;;8.28;52.21
55687;BME280;41911;52.362;4.978;2023-03-14T00:16:38;98775.58;;;8.16;52.25
55687;BME280;41911;52.362;4.978;2023-03-14T00:17:09;98774.76;;;7.79;52.93
55687;BME280;41911;52.362;4.978;2023-03-14T00:17:43;98786.63;;;7.96;52.87
55687;BME280;41911;52.362;4.978;2023-03-14T00:18:14;98779.56;;;7.79;53.07
55687;BME280;41911;52.362;4.978;2023-03-14T00:18:45;98764.70;;;8.15;53.17
55687;BME280;41911;52.362;4.978;2023-03-14T00:19:16;98777.88;;;8.19;52.68
55687;BME280;41911;52.362;4.978;2023-03-14T00:19:47;98778.13;;;7.88;53.11
55687;BME280;41911;52.362;4.978;2023-03-14T00:20:18;98777.11;;;8.25;52.61
55687;BME280;41911;52.362;4.978;2023-03-14T00:20:50;98771.57;;;8.74;52.63
55687;BME280;41911;52.362;4.978;2023-03-14T00:21:21;98774.50;;;8.29;52.61
55687;BME280;41911;52.362;4.978;2023-03-14T00:21:52;98771.16;;;8.55;51.98
55687;BME280;41911;52.362;4.978;2023-03-14T00:22:23;98779.57;;;8.28;52.40
55687;BME280;41911;52.362;4.978;2023-03-14T00:22:54;98772.71;;;8.27;52.35
55687;BME280;41911;52.362;4.978;2023-03-14T00:23:25;98776.34;;;8.64;51.75
55687;BME280;41911;52.362;4.978;2023-03-14T00:23:57;98770.90;;;8.17;52.52
55687;BME280;41911;52.362;4.978;2023-03-14T00:24:28;98773.06;;;8.43;52.22
55687;BME280;41911;52.362;4.978;2023-03-14T00:24:59;98773.57;;;8.65;51.70
55687;BME280;41911;52.362;4.978;2023-03-14T00:25:30;98769.61;;;8.50;52.33
55687;BME280;41911;52.362;4.978;2023-03-14T00:26:01;98772.29;;;8.07;52.72
55687;BME280;41911;52.362;4.978;2023-03-14T00:26:32;98765.42;;;8.08;52.78
55687;BME280;41911;52.362;4.978;2023-03-14T00:27:03;98757.68;;;8.36;52.47
55687;BME280;41911;52.362;4.978;2023-03-14T00:27:35;98773.97;;;7.83;53.01
55687;BME280;41911;52.362;4.978;2023-03-14T00:28:06;98765.59;;;7.74;53.38
55687;BME280;41911;52.362;4.978;2023-03-14T00:28:37;98771.71;;;8.08;52.93
55687;BME280;41911;52.362;4.978;2023-03-14T00:29:08;98760.23;;;7.79;53.18
55687;BME280;41911;52.362;4.978;2023-03-14T00:29:39;98771.05;;;7.81;53.31
55687;BME280;41911;52.362;4.978;2023-03-14T00:30:11;98759.20;;;7.77;53.59
55687;BME280;41911;52.362;4.978;2023-03-14T00:30:42;98752.83;;;7.65;54.01
55687;BME280;41911;52.362;4.978;2023-03-14T00:31:14;98760.71;;;8.09;54.02
55687;BME280;41911;52.362;4.978;2023-03-14T00:31:46;98774.40;;;7.69;54.08
55687;BME280;41911;52.362;4.978;2023-03-14T00:32:17;98767.40;;;7.90;53.30
55687;BME280;41911;52.362;4.978;2023-03-14T00:32:48;98765.99;;;7.79;54.40
55687;BME280;41911;52.362;4.978;2023-03-14T00:33:20;98765.10;;;7.33;55.16
55687;BME280;41911;52.362;4.978;2023-03-14T00:33:52;98774.73;;;7.15;55.49
55687;BME280;41911;52.362;4.978;2023-03-14T00:34:26;98773.13;;;7.46;54.90
55687;BME280;41911;52.362;4.978;2023-03-14T00:34:59;98764.55;;;7.18;55.52
55687;BME280;41911;52.362;4.978;2023-03-14T00:35:30;98752.46;;;7.41;55.89
55687;BME280;41911;52.362;4.978;2023-03-14T00:36:09;98758.90;;;7.39;55.32
55687;BME280;41911;52.362;4.978;2023-03-14T00:36:40;98764.70;;;7.39;54.83
55687;BME280;41911;52.362;4.978;2023-03-14T00:37:11;98769.06;;;7.70;54.81
55687;BME280;41911;52.362;4.978;2023-03-14T00:37:42;98765.77;;;7.69;54.58
55687;BME280;41911;52.362;4.978;2023-03-14T00:38:13;98764.00;;;7.49;54.87
55687;BME280;41911;52.362;4.978;2023-03-14T00:38:45;98760.78;;;7.91;53.87
55687;BME280;41911;52.362;4.978;2023-03-14T00:39:16;98764.26;;;8.47;53.24
55687;BME280;41911;52.362;4.978;2023-03-14T00:39:47;98766.52;;;8.00;52.88
55687;BME280;41911;52.362;4.978;2023-03-14T00:40:18;98767.47;;;8.65;53.02
55687;BME280;41911;52.362;4.978;2023-03-14T00:40:49;98756.10;;;8.44;53.32
55687;BME280;41911;52.362;4.978;2023-03-14T00:41:22;98769.08;;;8.25;53.32
55687;BME280;41911;52.362;4.978;2023-03-14T00:41:53;98756.71;;;7.72;53.26
55687;BME280;41911;52.362;4.978;2023-03-14T00:42:24;98760.54;;;7.86;54.17
55687;BME280;41911;52.362;4.978;2023-03-14T00:42:55;98762.84;;;7.94;54.30
55687;BME280;41911;52.362;4.978;2023-03-14T00:43:26;98767.48;;;7.51;54.21
55687;BME280;41911;52.362;4.978;2023-03-14T00:43:57;98774.17;;;7.63;54.49
55687;BME280;41911;52.362;4.978;2023-03-14T00:44:28;98769.72;;;7.44;54.59
55687;BME280;41911;52.362;4.978;2023-03-14T00:44:59;98767.57;;;7.79;54.55
55687;BME280;41911;52.362;4.978;2023-03-14T00:45:30;98759.11;;;7.21;54.37
55687;BME280;41911;52.362;4.978;2023-03-14T00:46:01;98760.37;;;7.87;53.60
55687;BME280;41911;52.362;4.978;2023-03-14T00:46:32;98759.65;;;8.01;53.28
55687;BME280;41911;52.362;4.978;2023-03-14T00:47:04;98754.51;;;8.20;52.90
55687;BME280;41911;52.362;4.978;2023-03-14T00:47:35;98756.20;;;8.02;53.14
55687;BME280;41911;52.362;4.978;2023-03-14T00:48:06;98767.42;;;7.99;53.82
55687;BME280;41911;52.362;4.978;2023-03-14T00:48:38;98761.99;;;7.80;53.73
55687;BME280;41911;52.362;4.978;2023-03-14T00:49:09;98762.68;;;7.68;53.72
55687;BME280;41911;52.362;4.978;2023-03-14T00:49:40;98773.77;;;7.91;54.12
55687;BME280;41911;52.362;4.978;2023-03-14T00:50:11;98763.92;;;7.75;53.71
55687;BME280;41911;52.362;4.978;2023-03-14T00:50:42;98767.80;;;8.15;52.87
55687;BME280;41911;52.362;4.978;2023-03-14T00:51:14;98756.77;;;8.07;53.27
55687;BME280;41911;52.362;4.978;2023-03-14T00:51:45;98761.97;;;8.03;53.10
55687;BME280;41911;52.362;4.978;2023-03-14T00:52:16;98768.68;;;8.02;53.11
55687;BME280;41911;52.362;4.978;2023-03-14T00:52:47;98767.37;;;7.89;52.69
55687;BME280;41911;52.362;4.978;2023-03-14T00:53:18;98768.18;;;8.18;52.54
55687;BME280;41911;52.362;4.978;2023-03-14T00:53:49;98773.14;;;8.28;52.43
55687;BME280;41911;52.362;4.978;2023-03-14T00:54:20;98767.26;;;8.22;52.41
55687;BME280;41911;52.362;4.978;2023-03-14T00:54:51;98772.21;;;8.22;52.56
55687;BME280;41911;52.362;4.978;2023-03-14T00:55:22;98769.03;;;8.10;53.32
55687;BME280;41911;52.362;4.978;2023-03-14T00:55:53;98767.87;;;7.92;53.35
55687;BME280;41911;52.362;4.978;2023-03-14T00:56:24;98771.24;;;7.97;53.20
55687;BME280;41911;52.362;4.978;2023-03-14T00:56:55;98770.26;;;7.79;53.06
55687;BME280;41911;52.362;4.978;2023-03-14T00:57:26;98767.87;;;7.85;53.38
55687;BME280;41911;52.362;4.978;2023-03-14T00:57:57;98768.25;;;7.73;53.62
55687;BME280;41911;52.362;4.978;2023-03-14T00:58:28;98775.35;;;7.77;53.48
55687;BME280;41911;52.362;4.978;2023-03-14T00:58:59;98765.71;;;7.94;53.29
55687;BME280;41911;52.362;4.978;2023-03-14T00:59:30;98762.54;;;8.22;52.92
55687;BME280;41911;52.362;4.978;2023-03-14T01:00:03;98758.19;;;8.22;52.95
55687;BME280;41911;52.362;4.978;2023-03-14T01:00:35;98757.66;;;8.16;52.92
55687;BME280;41911;52.362;4.978;2023-03-14T01:01:07;98761.60;;;8.45;52.60
55687;BME280;41911;52.362;4.978;2023-03-14T01:01:39;98761.38;;;8.53;52.39
55687;BME280;41911;52.362;4.978;2023-03-14T01:02:10;98747.80;;;8.03;53.01
55687;BME280;41911;52.362;4.978;2023-03-14T01:02:41;98759.07;;;8.00;53.35
55687;BME280;41911;52.362;4.978;2023-03-14T01:03:14;98769.87;;;7.49;53.85
55687;BME280;41911;52.362;4.978;2023-03-14T01:03:46;98758.69;;;7.69;54.30
55687;BME280;41911;52.362;4.978;2023-03-14T01:04:17;98762.90;;;7.56;54.14
55687;BME280;41911;52.362;4.978;2023-03-14T01:04:49;98771.09;;;8.23;53.35
55687;BME280;41911;52.362;4.978;2023-03-14T01:05:21;98763.07;;;8.04;53.23
55687;BME280;41911;52.362;4.978;2023-03-14T01:05:53;98764.45;;;8.03;53.27
55687;BME280;41911;52.362;4.978;2023-03-14T01:06:26;98760.38;;;7.61;53.87
55687;BME280;41911;52.362;4.978;2023-03-14T01:06:58;98767.07;;;7.38;54.84
55687;BME280;41911;52.362;4.978;2023-03-14T01:07:29;98768.72;;;7.60;54.20
55687;BME280;41911;52.362;4.978;2023-03-14T01:08:00;98763.60;;;7.77;53.85
55687;BME280;41911;52.362;4.978;2023-03-14T01:08:31;98766.37;;;7.90;54.68
55687;BME280;41911;52.362;4.978;2023-03-14T01:09:02;98772.13;;;7.56;55.11
55687;BME280;41911;52.362;4.978;2023-03-14T01:09:33;98772.64;;;8.03;54.70
55687;BME280;41911;52.362;4.978;2023-03-14T01:10:05;98772.50;;;7.52;54.38
55687;BME280;41911;52.362;4.978;2023-03-14T01:10:38;98771.23;;;8.14;53.51
55687;BME280;41911;52.362;4.978;2023-03-14T01:11:11;98776.90;;;8.17;53.20
55687;BME280;41911;52.362;4.978;2023-03-14T01:11:43;98774.56;;;8.21;52.96
55687;BME280;41911;52.362;4.978;2023-03-14T01:12:14;98784.26;;;7.98;53.40
55687;BME280;41911;52.362;4.978;2023-03-14T01:12:45;98782.10;;;7.64;53.98
55687;BME280;41911;52.362;4.978;2023-03-14T01:13:16;98782.41;;;7.55;54.10
55687;BME280;41911;52.362;4.978;2023-03-14T01:13:47;98774.17;;;7.28;54.72
55687;BME280;41911;52.362;4.978;2023-03-14T01:14:18;98784.78;;;7.76;54.61
55687;BME280;41911;52.362;4.978;2023-03-14T01:14:49;98777.16;;;7.42;54.99
55687;BME280;41911;52.362;4.978;2023-03-14T01:15:20;98780.86;;;7.65;55.43
55687;BME280;41911;52.362;4.978;2023-03-14T01:15:51;98788.46;;;7.46;54.97
55687;BME280;41911;52.362;4.978;2023-03-14T01:16:24;98779.12;;;7.39;55.13
55687;BME280;41911;52.362;4.978;2023-03-14T01:16:55;98786.13;;;7.58;55.15
55687;BME280;41911;52.362;4.978;2023-03-14T01:17:26;98793.31;;;7.60;55.73
55687;BME280;41911;52.362;4.978;2023-03-14T01:17:57;98784.65;;;7.47;54.98
55687;BME280;41911;52.362;4.978;2023-03-14T01:18:28;98766.93;;;7.84;54.52
55687;BME280;41911;52.362;4.978;2023-03-14T01:19:00;98784.11;;;7.71;54.61
55687;BME280;41911;52.362;4.978;2023-03-14T01:19:31;98771.31;;;7.52;54.97
55687;BME280;41911;52.362;4.978;2023-03-14T01:20:02;98767.18;;;7.69;54.84
55687;BME280;41911;52.362;4.978;2023-03-14T01:20:33;98788.69;;;7.73;54.60
55687;BME280;41911;52.362;4.978;2023-03-14T01:21:10;98762.91;;;7.36;55.35
55687;BME280;41911;52.362;4.978;2023-03-14T01:21:41;98807.08;;;8.11;55.09
55687;BME280;41911;52.362;4.978;2023-03-14T01:22:12;98767.65;;;8.06;54.93
55687;BME280;41911;52.362;4.978;2023-03-14T01:22:43;98772.40;;;7.69;55.76
55687;BME280;41911;52.362;4.978;2023-03-14T01:23:14;98789.29;;;7.67;56.16
55687;BME280;41911;52.362;4.978;2023-03-14T01:23:46;98785.25;;;7.42;56.60
55687;BME280;41911;52.362;4.978;2023-03-14T01:24:17;98774.10;;;7.51;56.46
55687;BME280;41911;52.362;4.978;2023-03-14T01:24:48;98776.13;;;7.93;55.74
55687;BME280;41911;52.362;4.978;2023-03-14T01:25:20;98781.25;;;7.75;56.04
55687;BME280;41911;52.362;4.978;2023-03-14T01:25:51;98777.46;;;7.94;55.78
55687;BME280;41911;52.362;4.978;2023-03-14T01:26:24;98778.99;;;7.98;55.69
55687;BME280;41911;52.362;4.978;2023-03-14T01:26:55;98775.25;;;7.21;56.58
55687;BME280;41911;52.362;4.978;2023-03-14T01:27:26;98771.30;;;7.76;56.16
55687;BME280;41911;52.362;4.978;2023-03-14T01:27:57;98766.05;;;7.71;56.29
55687;BME280;41911;52.362;4.978;2023-03-14T01:28:28;98773.86;;;7.74;56.11
55687;BME280;41911;52.362;4.978;2023-03-14T01:28:59;98786.03;;;7.92;55.85
55687;BME280;41911;52.362;4.978;2023-03-14T01:29:30;98767.69;;;7.57;56.35
55687;BME280;41911;52.362;4.978;2023-03-14T01:30:01;98764.51;;;7.82;56.21
55687;BME280;41911;52.362;4.978;2023-03-14T01:30:33;98775.53;;;7.30;56.61
55687;BME280;41911;52.362;4.978;2023-03-14T01:31:04;98780.43;;;7.46;56.91
55687;BME280;41911;52.362;4.978;2023-03-14T01:31:36;98768.84;;;7.56;56.74
55687;BME280;41911;52.362;4.978;2023-03-14T01:32:07;98777.07;;;7.63;56.62
55687;BME280;41911;52.362;4.978;2023-03-14T01:32:38;98768.94;;;7.60;56.63
55687;BME280;41911;52.362;4.978;2023-03-14T01:33:09;98785.00;;;7.76;55.87
55687;BME280;41911;52.362;4.978;2023-03-14T01:33:41;98785.67;;;7.78;56.36
55687;BME280;41911;52.362;4.978;2023-03-14T01:34:12;98780.28;;;7.32;57.19
55687;BME280;41911;52.362;4.978;2023-03-14T01:34:43;98771.67;;;7.45;56.95
55687;BME280;41911;52.362;4.978;2023-03-14T01:35:14;98782.11;;;7.33;57.15
55687;BME280;41911;52.362;4.978;2023-03-14T01:35:45;98788.50;;;7.40;57.18
55687;BME280;41911;52.362;4.978;2023-03-14T01:36:16;98775.98;;;7.07;57.75
55687;BME280;41911;52.362;4.978;2023-03-14T01:36:47;98789.52;;;7.44;58.04
55687;BME280;41911;52.362;4.978;2023-03-14T01:37:18;98786.00;;;7.40;58.26
55687;BME280;41911;52.362;4.978;2023-03-14T01:37:49;98780.68;;;7.28;58.15
55687;BME280;41911;52.362;4.978;2023-03-14T01:38:20;98781.18;;;7.45;57.89
55687;BME280;41911;52.362;4.978;2023-03-14T01:38:51;98773.87;;;7.53;58.28
55687;BME280;41911;52.362;4.978;2023-03-14T01:39:23;98781.20;;;7.36;58.04
55687;BME280;41911;52.362;4.978;2023-03-14T01:39:54;98802.88;;;7.50;57.61
55687;BME280;41911;52.362;4.978;2023-03-14T01:40:25;98782.92;;;7.12;58.38
55687;BME280;41911;52.362;4.978;2023-03-14T01:40:56;98793.87;;;7.07;58.64
55687;BME280;41911;52.362;4.978;2023-03-14T01:41:28;98785.56;;;7.47;58.31
55687;BME280;41911;52.362;4.978;2023-03-14T01:42:00;98785.82;;;7.04;59.00
55687;BME280;41911;52.362;4.978;2023-03-14T01:42:31;98785.17;;;6.74;59.40
55687;BME280;41911;52.362;4.978;2023-03-14T01:43:12;98776.41;;;6.91;59.15
55687;BME280;41911;52.362;4.978;2023-03-14T01:43:44;98782.78;;;7.38;58.71
55687;BME280;41911;52.362;4.978;2023-03-14T01:44:15;98773.38;;;7.08;58.94
55687;BME280;41911;52.362;4.978;2023-03-14T01:44:49;98776.45;;;6.96;59.06
55687;BME280;41911;52.362;4.978;2023-03-14T01:46:32;98771.15;;;7.39;58.93
55687;BME280;41911;52.362;4.978;2023-03-14T01:47:06;98770.53;;;7.53;57.89
55687;BME280;41911;52.362;4.978;2023-03-14T01:47:37;98780.23;;;7.17;57.92
55687;BME280;41911;52.362;4.978;2023-03-14T01:48:08;98769.88;;;7.39;57.92
55687;BME280;41911;52.362;4.978;2023-03-14T01:48:43;98776.56;;;7.71;57.48
55687;BME280;41911;52.362;4.978;2023-03-14T01:49:22;98786.68;;;7.41;57.86
55687;BME280;41911;52.362;4.978;2023-03-14T01:50:01;98770.80;;;7.09;58.38
55687;BME280;41911;52.362;4.978;2023-03-14T01:50:34;98770.40;;;6.97;58.59
55687;BME280;41911;52.362;4.978;2023-03-14T01:51:08;98780.55;;;7.16;58.55
55687;BME280;41911;52.362;4.978;2023-03-14T01:51:47;98772.56;;;6.36;59.56
55687;BME280;41911;52.362;4.978;2023-03-14T01:52:24;98765.57;;;7.04;59.12
55687;BME280;41911;52.362;4.978;2023-03-14T01:52:55;98780.96;;;6.75;59.00
55687;BME280;41911;52.362;4.978;2023-03-14T01:53:27;98767.87;;;6.67;59.58
55687;BME280;41911;52.362;4.978;2023-03-14T01:54:05;98777.01;;;6.97;59.56
55687;BME280;41911;52.362;4.978;2023-03-14T01:54:39;98775.16;;;6.76;60.17
55687;BME280;41911;52.362;4.978;2023-03-14T01:55:13;98777.81;;;7.12;59.54
55687;BME280;41911;52.362;4.978;2023-03-14T01:55:46;98772.43;;;6.92;59.02
55687;BME280;41911;52.362;4.978;2023-03-14T01:56:18;98770.51;;;6.99;58.64
55687;BME280;41911;52.362;4.978;2023-03-14T01:56:53;98765.68;;;7.02;58.45
55687;BME280;41911;52.362;4.978;2023-03-14T01:57:29;98768.39;;;6.82;58.87
55687;BME280;41911;52.362;4.978;2023-03-14T01:58:04;98765.38;;;6.87;59.37
55687;BME280;41911;52.362;4.978;2023-03-14T01:58:35;98777.20;;;7.02;59.06
55687;BME280;41911;52.362;4.978;2023-03-14T01:59:08;98766.68;;;7.14;59.06
55687;BME280;41911;52.362;4.978;2023-03-14T01:59:45;98763.93;;;6.84;59.48
55687;BME280;41911;52.362;4.978;2023-03-14T02:00:21;98770.71;;;7.80;58.33
55687;BME280;41911;52.362;4.978;2023-03-14T02:00:53;98755.55;;;7.05;58.46
55687;BME280;41911;52.362;4.978;2023-03-14T02:01:26;98759.49;;;6.63;59.35
55687;BME280;41911;52.362;4.978;2023-03-14T02:01:57;98756.63;;;7.21;58.45
55687;BME280;41911;52.362;4.978;2023-03-14T02:02:29;98757.44;;;7.33;57.88
55687;BME280;41911;52.362;4.978;2023-03-14T02:03:05;98751.75;;;7.04;58.34
55687;BME280;41911;52.362;4.978;2023-03-14T02:03:44;98763.77;;;6.68;59.48
55687;BME280;41911;52.362;4.978;2023-03-14T02:04:18;98765.45;;;6.95;59.13
55687;BME280;41911;52.362;4.978;2023-03-14T02:04:51;98759.10;;;6.88;58.72
55687;BME280;41911;52.362;4.978;2023-03-14T02:05:25;98757.39;;;7.60;58.67
55687;BME280;41911;52.362;4.978;2023-03-14T02:06:03;98740.92;;;6.62;59.30
55687;BME280;41911;52.362;4.978;2023-03-14T02:06:42;98754.37;;;6.91;59.44
55687;BME280;41911;52.362;4.978;2023-03-14T02:07:17;98750.97;;;6.91;59.40
55687;BME280;41911;52.362;4.978;2023-03-14T02:07:51;98758.65;;;6.66;59.42
55687;BME280;41911;52.362;4.978;2023-03-14T02:08:23;98755.31;;;7.13;59.06
55687;BME280;41911;52.362;4.978;2023-03-14T02:08:55;98749.98;;;6.74;59.08
55687;BME280;41911;52.362;4.978;2023-03-14T02:09:26;98754.20;;;7.12;58.58
55687;BME280;41911;52.362;4.978;2023-03-14T02:09:58;98753.27;;;7.49;57.78
55687;BME280;41911;52.362;4.978;2023-03-14T02:10:33;98753.08;;;7.65;57.55
55687;BME280;41911;52.362;4.978;2023-03-14T02:11:05;98755.77;;;7.55;57.68
55687;BME280;41911;52.362;4.978;2023-03-14T02:11:36;98759.53;;;7.65;57.44
55687;BME280;41911;52.362;4.978;2023-03-14T02:12:11;98756.48;;;7.29;57.47
55687;BME280;41911;52.362;4.978;2023-03-14T02:12:43;98750.14;;;7.46;57.63
55687;BME280;41911;52.362;4.978;2023-03-14T02:13:18;98753.90;;;7.00;58.01
55687;BME280;41911;52.362;4.978;2023-03-14T02:13:50;98741.08;;;7.03;58.53
55687;BME280;41911;52.362;4.978;2023-03-14T02:14:27;98761.80;;;7.33;58.72
55687;BME280;41911;52.362;4.978;2023-03-14T02:15:00;98757.13;;;7.20;58.33
55687;BME280;41911;52.362;4.978;2023-03-14T02:15:32;98750.56;;;6.92;58.81
55687;BME280;41911;52.362;4.978;2023-03-14T02:16:04;98747.35;;;7.10;58.56
55687;BME280;41911;52.362;4.978;2023-03-14T02:16:35;98749.48;;;7.37;58.59
55687;BME280;41911;52.362;4.978;2023-03-14T02:17:07;98740.29;;;7.06;58.72
55687;BME280;41911;52.362;4.978;2023-03-14T02:17:39;98752.66;;;7.31;58.84
55687;BME280;41911;52.362;4.978;2023-03-14T02:18:13;98748.81;;;7.31;58.21
55687;BME280;41911;52.362;4.978;2023-03-14T02:18:45;98751.54;;;7.24;57.86
55687;BME280;41911;52.362;4.978;2023-03-14T02:19:21;98745.20;;;7.12;58.50
55687;BME280;41911;52.362;4.978;2023-03-14T02:20:06;98741.37;;;6.95;58.29
55687;BME280;41911;52.362;4.978;2023-03-14T02:20:45;98745.99;;;7.40;58.14
55687;BME280;41911;52.362;4.978;2023-03-14T02:21:23;98744.94;;;7.42;58.04
55687;BME280;41911;52.362;4.978;2023-03-14T02:22:05;98747.09;;;7.40;58.17
55687;BME280;41911;52.362;4.978;2023-03-14T02:22:41;98734.51;;;7.68;57.34
55687;BME280;41911;52.362;4.978;2023-03-14T02:23:16;98735.30;;;7.69;57.87
55687;BME280;41911;52.362;4.978;2023-03-14T02:23:56;98737.38;;;7.27;58.09
55687;BME280;41911;52.362;4.978;2023-03-14T02:24:37;98735.31;;;8.02;57.74
55687;BME280;41911;52.362;4.978;2023-03-14T02:25:12;98734.90;;;7.47;57.86
55687;BME280;41911;52.362;4.978;2023-03-14T02:25:48;98736.71;;;8.10;57.86
55687;BME280;41911;52.362;4.978;2023-03-14T02:26:25;98727.66;;;7.10;58.56
55687;BME280;41911;52.362;4.978;2023-03-14T02:27:05;98732.98;;;7.61;58.90
55687;BME280;41911;52.362;4.978;2023-03-14T02:27:36;98735.65;;;7.46;59.44
55687;BME280;41911;52.362;4.978;2023-03-14T02:28:08;98739.66;;;7.44;59.12
55687;BME280;41911;52.362;4.978;2023-03-14T02:28:39;98729.32;;;7.56;58.73
55687;BME280;41911;52.362;4.978;2023-03-14T02:29:11;98747.97;;;7.42;59.08
55687;BME280;41911;52.362;4.978;2023-03-14T02:29:48;98734.24;;;7.63;59.05
55687;BME280;41911;52.362;4.978;2023-03-14T02:30:23;98739.03;;;7.50;59.44
55687;BME280;41911;52.362;4.978;2023-03-14T02:30:54;98741.77;;;7.41;58.93
55687;BME280;41911;52.362;4.978;2023-03-14T02:31:26;98732.93;;;7.80;58.53
55687;BME280;41911;52.362;4.978;2023-03-14T02:31:57;98732.61;;;7.89;58.43
55687;BME280;41911;52.362;4.978;2023-03-14T02:32:30;98735.27;;;7.05;58.70
55687;BME280;41911;52.362;4.978;2023-03-14T02:33:05;98731.50;;;7.68;58.62
55687;BME280;41911;52.362;4.978;2023-03-14T02:33:38;98736.66;;;7.83;57.99
55687;BME280;41911;52.362;4.978;2023-03-14T02:34:09;98733.20;;;7.69;58.00
55687;BME280;41911;52.362;4.978;2023-03-14T02:34:41;98733.18;;;7.76;58.19
55687;BME280;41911;52.362;4.978;2023-03-14T02:35:17;98726.79;;;7.97;57.98
55687;BME280;41911;52.362;4.978;2023-03-14T02:35:52;98735.57;;;7.56;57.55
55687;BME280;41911;52.362;4.978;2023-03-14T02:36:24;98740.90;;;7.46;57.75
55687;BME280;41911;52.362;4.978;2023-03-14T02:36:55;98734.88;;;7.71;57.79
55687;BME280;41911;52.362;4.978;2023-03-14T02:37:32;98729.66;;;7.91;57.86
55687;BME280;41911;52.362;4.978;2023-03-14T02:38:08;98732.59;;;7.99;57.75
55687;BME280;41911;52.362;4.978;2023-03-14T02:38:46;98730.72;;;7.21;58.28
55687;BME280;41911;52.362;4.978;2023-03-14T02:39:21;98738.34;;;7.66;58.53
55687;BME280;41911;52.362;4.978;2023-03-14T02:39:55;98734.53;;;7.84;58.28
55687;BME280;41911;52.362;4.978;2023-03-14T02:40:26;98723.28;;;7.45;58.62
55687;BME280;41911;52.362;4.978;2023-03-14T02:40:57;98730.18;;;7.62;58.46
55687;BME280;41911;52.362;4.978;2023-03-14T02:41:29;98726.02;;;7.71;58.35
55687;BME280;41911;52.362;4.978;2023-03-14T02:42:00;98729.10;;;7.82;57.95
55687;BME280;41911;52.362;4.978;2023-03-14T02:42:32;98732.83;;;7.61;58.00
55687;BME280;41911;52.362;4.978;2023-03-14T02:43:03;98723.27;;;7.58;58.19
55687;BME280;41911;52.362;4.978;2023-03-14T02:43:35;98723.65;;;7.49;57.96
55687;BME280;41911;52.362;4.978;2023-03-14T02:44:06;98721.76;;;7.90;57.72
55687;BME280;41911;52.362;4.978;2023-03-14T02:44:48;98733.51;;;7.90;57.16
55687;BME280;41911;52.362;4.978;2023-03-14T02:45:36;98720.69;;;7.90;57.54
55687;BME280;41911;52.362;4.978;2023-03-14T02:46:09;98724.47;;;8.05;57.30
55687;BME280;41911;52.362;4.978;2023-03-14T02:46:41;98731.00;;;7.65;57.76
55687;BME280;41911;52.362;4.978;2023-03-14T02:47:13;98725.19;;;7.57;58.16
55687;BME280;41911;52.362;4.978;2023-03-14T02:47:48;98719.42;;;6.88;58.40
55687;BME280;41911;52.362;4.978;2023-03-14T02:48:22;98723.76;;;7.48;58.39
55687;BME280;41911;52.362;4.978;2023-03-14T02:48:57;98725.11;;;7.23;58.51
55687;BME280;41911;52.362;4.978;2023-03-14T02:49:31;98717.45;;;7.30;58.34
55687;BME280;41911;52.362;4.978;2023-03-14T02:50:09;98720.74;;;8.11;57.66
55687;BME280;41911;52.362;4.978;2023-03-14T02:50:41;98725.56;;;7.29;57.98
55687;BME280;41911;52.362;4.978;2023-03-14T02:51:13;98712.22;;;7.19;58.45
55687;BME280;41911;52.362;4.978;2023-03-14T02:51:46;98722.91;;;7.38;58.30
55687;BME280;41911;52.362;4.978;2023-03-14T02:52:17;98709.63;;;7.35;58.87
55687;BME280;41911;52.362;4.978;2023-03-14T02:52:48;98722.79;;;6.93;58.91
55687;BME280;41911;52.362;4.978;2023-03-14T02:53:25;98719.59;;;7.72;58.23
55687;BME280;41911;52.362;4.978;2023-03-14T02:53:56;98726.80;;;7.29;58.81
55687;BME280;41911;52.362;4.978;2023-03-14T02:54:27;98716.45;;;7.27;58.58
55687;BME280;41911;52.362;4.978;2023-03-14T02:54:58;98715.95;;;7.55;58.31
55687;BME280;41911;52.362;4.978;2023-03-14T02:55:29;98706.12;;;7.33;58.63
55687;BME280;41911;52.362;4.978;2023-03-14T02:56:00;98704.17;;;7.13;58.87
55687;BME280;41911;52.362;4.978;2023-03-14T02:56:32;98713.55;;;7.12;59.57